createdAt,value
2018-02-27T00:02:01.704Z,-2.40
2018-02-27T00:04:35.503Z,-2.40
2018-02-27T00:07:10.115Z,-2.40
2018-02-27T00:09:44.294Z,-2.50
2018-02-27T00:12:18.929Z,-2.40
2018-02-27T00:14:53.203Z,-2.50
2018-02-27T00:17:27.873Z,-2.50
2018-02-27T00:20:01.904Z,-2.60
2018-02-27T00:22:35.623Z,-2.40
2018-02-27T00:25:10.455Z,-2.50
2018-02-27T00:27:44.551Z,-2.60
2018-02-27T00:30:18.477Z,-2.50
2018-02-27T00:32:52.535Z,-2.70
2018-02-27T00:35:26.302Z,-2.50
2018-02-27T00:38:00.339Z,-2.40
2018-02-27T00:40:34.931Z,-2.50
2018-02-27T00:43:09.638Z,-2.60
2018-02-27T00:45:43.500Z,-2.80
2018-02-27T00:48:17.522Z,-2.80
2018-02-27T00:50:51.531Z,-2.70
2018-02-27T00:53:25.291Z,-2.70
2018-02-27T00:55:59.136Z,-2.70
2018-02-27T00:58:33.060Z,-3.00
2018-02-27T01:01:06.855Z,-2.80
2018-02-27T01:03:40.550Z,-2.80
2018-02-27T01:06:14.310Z,-2.60
2018-02-27T01:08:48.032Z,-2.70
2018-02-27T01:11:21.855Z,-2.80
2018-02-27T01:13:56.513Z,-2.80
2018-02-27T01:16:31.193Z,-2.60
2018-02-27T01:19:06.370Z,-2.60
2018-02-27T01:21:40.957Z,-2.50
2018-02-27T01:24:15.577Z,-2.90
2018-02-27T01:26:49.444Z,-2.80
2018-02-27T01:29:23.457Z,-2.60
2018-02-27T01:31:57.395Z,-2.80
2018-02-27T01:34:31.496Z,-2.90
2018-02-27T01:37:06.495Z,-2.90
2018-02-27T01:39:40.523Z,-2.90
2018-02-27T01:42:14.450Z,-2.90
2018-02-27T01:44:48.781Z,-3.00
2018-02-27T01:47:22.573Z,-2.80
2018-02-27T01:49:56.835Z,-3.00
2018-02-27T01:52:31.162Z,-3.00
2018-02-27T01:55:05.467Z,-3.00
2018-02-27T01:57:39.440Z,-3.20
2018-02-27T02:00:13.203Z,-3.10
2018-02-27T02:02:47.511Z,-3.10
2018-02-27T02:05:22.219Z,-3.20
2018-02-27T02:07:56.506Z,-3.20
2018-02-27T02:10:30.578Z,-3.00
2018-02-27T02:13:05.338Z,-2.50
2018-02-27T02:15:39.289Z,-2.60
2018-02-27T02:18:14.688Z,-2.80
2018-02-27T02:20:48.739Z,-2.90
2018-02-27T02:23:22.947Z,-2.90
2018-02-27T02:25:57.577Z,-2.90
2018-02-27T02:28:32.125Z,-2.60
2018-02-27T02:31:06.060Z,-2.60
2018-02-27T02:33:40.002Z,-2.80
2018-02-27T02:36:14.582Z,-3.00
2018-02-27T02:38:49.235Z,-3.00
2018-02-27T02:41:23.263Z,-3.10
2018-02-27T02:43:57.184Z,-3.50
2018-02-27T02:46:30.934Z,-3.20
2018-02-27T02:49:04.818Z,-3.30
2018-02-27T02:51:39.478Z,-3.00
2018-02-27T02:54:13.163Z,-2.70
2018-02-27T02:56:48.054Z,-2.90
2018-02-27T02:59:22.123Z,-2.90
2018-02-27T03:01:56.581Z,-2.80
2018-02-27T03:04:31.850Z,-2.90
2018-02-27T03:07:06.330Z,-3.00
2018-02-27T03:09:41.354Z,-3.10
2018-02-27T03:12:15.861Z,-3.10
2018-02-27T03:14:49.755Z,-3.10
2018-02-27T03:17:23.685Z,-3.00
2018-02-27T03:19:57.960Z,-2.70
2018-02-27T03:22:32.966Z,-2.60
2018-02-27T03:25:07.159Z,-2.70
2018-02-27T03:27:40.818Z,-2.80
2018-02-27T03:30:14.688Z,-2.40
2018-02-27T03:32:48.558Z,-2.40
2018-02-27T03:35:22.344Z,-2.40
2018-02-27T03:37:56.928Z,-2.70
2018-02-27T03:40:30.756Z,-2.80
2018-02-27T03:43:04.612Z,-3.20
2018-02-27T03:45:39.199Z,-2.60
2018-02-27T03:48:13.149Z,-2.70
2018-02-27T03:50:47.759Z,-2.50
2018-02-27T03:53:21.918Z,-2.50
2018-02-27T03:55:56.412Z,-2.80
2018-02-27T03:58:30.580Z,-2.80
2018-02-27T04:01:04.446Z,-2.80
2018-02-27T04:03:38.451Z,-2.80
2018-02-27T04:06:13.027Z,-2.80
2018-02-27T04:08:46.681Z,-2.70
2018-02-27T04:11:20.665Z,-2.70
2018-02-27T04:13:54.694Z,-2.70
2018-02-27T04:16:28.472Z,-2.80
2018-02-27T04:19:03.248Z,-2.80
2018-02-27T04:21:38.417Z,-2.80
2018-02-27T04:24:13.518Z,-3.00
2018-02-27T04:26:47.933Z,-3.00
2018-02-27T04:29:23.284Z,-2.90
2018-02-27T04:31:57.379Z,-2.90
2018-02-27T04:34:31.089Z,-2.90
2018-02-27T04:37:05.102Z,-3.00
2018-02-27T04:39:38.919Z,-3.00
2018-02-27T04:42:13.374Z,-2.80
2018-02-27T04:44:47.224Z,-2.80
2018-02-27T04:47:22.007Z,-2.80
2018-02-27T04:49:56.311Z,-2.90
2018-02-27T04:52:30.012Z,-2.80
2018-02-27T04:55:04.571Z,-2.80
2018-02-27T04:57:38.380Z,-2.80
2018-02-27T05:00:12.275Z,-2.80
2018-02-27T05:02:46.786Z,-2.80
2018-02-27T05:05:21.809Z,-2.80
2018-02-27T05:07:57.272Z,-2.90
2018-02-27T05:10:32.384Z,-3.00
2018-02-27T05:13:07.228Z,-3.10
2018-02-27T05:15:41.136Z,-3.10
2018-02-27T05:18:15.853Z,-3.00
2018-02-27T05:20:50.602Z,-3.10
2018-02-27T05:23:25.426Z,-3.00
2018-02-27T05:25:59.748Z,-3.00
2018-02-27T05:28:33.733Z,-3.00
2018-02-27T05:31:08.166Z,-3.20
2018-02-27T05:33:42.520Z,-3.20
2018-02-27T05:36:17.795Z,-3.20
2018-02-27T05:38:51.835Z,-3.20
2018-02-27T05:41:25.521Z,-3.20
2018-02-27T05:43:59.189Z,-3.20
2018-02-27T05:46:33.756Z,-3.20
2018-02-27T05:49:08.026Z,-3.20
2018-02-27T05:51:42.194Z,-3.10
2018-02-27T05:54:16.834Z,-3.10
2018-02-27T05:56:51.733Z,-3.30
2018-02-27T05:59:25.925Z,-3.30
2018-02-27T06:01:59.709Z,-3.10
2018-02-27T06:04:34.499Z,-3.20
2018-02-27T06:07:08.338Z,-3.30
2018-02-27T06:09:42.958Z,-3.20
2018-02-27T06:12:17.007Z,-3.30
2018-02-27T06:14:50.886Z,-3.20
2018-02-27T06:17:24.733Z,-3.30
2018-02-27T06:19:58.765Z,-3.50
2018-02-27T06:22:33.397Z,-3.60
2018-02-27T06:25:08.121Z,-3.60
2018-02-27T06:27:42.085Z,-3.60
2018-02-27T06:30:16.551Z,-3.60
2018-02-27T06:32:52.116Z,-3.60
2018-02-27T06:35:26.765Z,-3.60
2018-02-27T06:38:01.157Z,-3.70
2018-02-27T06:40:35.638Z,-3.70
2018-02-27T06:43:09.268Z,-3.60
2018-02-27T06:45:43.022Z,-3.70
2018-02-27T06:48:16.617Z,-3.70
2018-02-27T06:50:50.962Z,-4.00
2018-02-27T06:53:26.289Z,-3.60
2018-02-27T06:56:00.589Z,-3.60
2018-02-27T06:58:34.371Z,-3.70
2018-02-27T07:01:08.179Z,-3.60
2018-02-27T07:03:41.785Z,-3.40
2018-02-27T07:06:16.483Z,-3.60
2018-02-27T07:08:50.411Z,-3.60
2018-02-27T07:11:24.938Z,-3.40
2018-02-27T07:13:58.971Z,-3.40
2018-02-27T07:16:33.708Z,-3.30
2018-02-27T07:19:07.684Z,-3.30
2018-02-27T07:21:41.476Z,-3.30
2018-02-27T07:24:16.070Z,-3.10
2018-02-27T07:26:50.708Z,-3.10
2018-02-27T07:29:25.250Z,-3.30
2018-02-27T07:31:59.503Z,-3.40
2018-02-27T07:34:34.768Z,-3.50
2018-02-27T07:37:10.456Z,-3.30
2018-02-27T07:39:45.049Z,-3.10
2018-02-27T07:42:19.058Z,-3.10
2018-02-27T07:44:54.073Z,-3.10
2018-02-27T07:47:28.632Z,-3.10
2018-02-27T07:50:02.280Z,-3.20
2018-02-27T07:52:38.340Z,-3.30
2018-02-27T07:55:12.107Z,-3.30
2018-02-27T07:57:45.799Z,-2.70
2018-02-27T08:00:20.426Z,-2.10
2018-02-27T08:02:54.627Z,-2.10
2018-02-27T08:05:30.175Z,-2.00
2018-02-27T08:08:04.399Z,-2.00
2018-02-27T08:10:38.255Z,-1.50
2018-02-27T08:13:12.184Z,-2.00
2018-02-27T08:15:45.902Z,-2.50
2018-02-27T08:18:20.674Z,-2.80
2018-02-27T08:20:54.678Z,-2.80
2018-02-27T08:23:28.624Z,-2.90
2018-02-27T08:26:02.411Z,-2.80
2018-02-27T08:28:36.229Z,-2.70
2018-02-27T08:31:09.980Z,-2.80
2018-02-27T08:33:43.872Z,-2.70
2018-02-27T08:36:18.498Z,-2.30
2018-02-27T08:38:52.451Z,-2.40
2018-02-27T08:41:26.073Z,-2.40
2018-02-27T08:44:00.964Z,-2.60
2018-02-27T08:46:35.220Z,-2.60
2018-02-27T08:49:08.979Z,-2.60
2018-02-27T08:51:43.021Z,-2.40
2018-02-27T08:54:16.995Z,-2.50
2018-02-27T08:56:51.602Z,-3.20
2018-02-27T08:59:25.698Z,-3.30
2018-02-27T09:01:59.772Z,-3.20
2018-02-27T09:04:34.591Z,-2.90
2018-02-27T09:07:09.493Z,-2.50
2018-02-27T09:09:44.436Z,-2.60
2018-02-27T09:12:18.656Z,-2.60
2018-02-27T09:14:52.932Z,-2.50
2018-02-27T09:17:27.135Z,-2.50
2018-02-27T09:20:00.990Z,-2.30
2018-02-27T09:22:34.754Z,-2.00
2018-02-27T09:25:08.548Z,-1.40
2018-02-27T09:27:42.170Z,-1.10
2018-02-27T09:30:15.934Z,-0.90
2018-02-27T09:32:49.918Z,-0.80
2018-02-27T09:35:23.870Z,-0.90
2018-02-27T09:37:57.610Z,-1.50
2018-02-27T09:40:31.452Z,-1.90
2018-02-27T09:43:05.256Z,-2.10
2018-02-27T09:45:39.157Z,-1.90
2018-02-27T09:48:13.658Z,-2.10
2018-02-27T09:50:47.822Z,-2.20
2018-02-27T09:53:21.697Z,-1.90
2018-02-27T09:55:57.039Z,-2.10
2018-02-27T09:58:31.007Z,-2.10
2018-02-27T10:01:05.780Z,-2.10
2018-02-27T10:03:39.737Z,-2.10
2018-02-27T10:06:14.416Z,-1.70
2018-02-27T10:08:48.414Z,-1.70
2018-02-27T10:11:22.361Z,-1.60
2018-02-27T10:13:56.921Z,-1.80
2018-02-27T10:16:31.215Z,-1.80
2018-02-27T10:19:05.078Z,-1.60
2018-02-27T10:21:39.152Z,-1.80
2018-02-27T10:24:12.786Z,-1.60
2018-02-27T10:26:46.753Z,-1.30
2018-02-27T10:29:20.436Z,-2.30
2018-02-27T10:31:54.079Z,-1.80
2018-02-27T10:34:27.816Z,-1.80
2018-02-27T10:37:01.581Z,-1.50
2018-02-27T10:39:35.273Z,-1.40
2018-02-27T10:42:09.958Z,-1.30
2018-02-27T10:44:43.821Z,-1.30
2018-02-27T10:47:18.382Z,-1.80
2018-02-27T10:49:52.193Z,-1.80
2018-02-27T10:52:25.972Z,-1.80
2018-02-27T10:55:00.647Z,-1.60
2018-02-27T10:57:34.473Z,-1.40
2018-02-27T11:00:09.648Z,-0.90
2018-02-27T11:02:44.686Z,-0.80
2018-02-27T11:05:19.074Z,-0.80
2018-02-27T11:07:52.929Z,-1.10
2018-02-27T11:10:28.326Z,-0.80
2018-02-27T11:13:02.398Z,-0.90
2018-02-27T11:15:36.505Z,-0.90
2018-02-27T11:18:10.240Z,-1.00
2018-02-27T11:20:45.000Z,-0.90
2018-02-27T11:23:19.268Z,-0.90
2018-02-27T11:25:53.053Z,-0.80
2018-02-27T11:28:26.936Z,-0.70
2018-02-27T11:31:01.583Z,-0.70
2018-02-27T11:33:35.427Z,-0.80
2018-02-27T11:36:09.442Z,-0.80
2018-02-27T11:38:43.401Z,-1.00
2018-02-27T11:41:17.214Z,-0.40
2018-02-27T11:43:51.620Z,-1.30
2018-02-27T11:46:26.363Z,-1.30
2018-02-27T11:49:00.510Z,-1.40
2018-02-27T11:51:34.214Z,-0.90
2018-02-27T11:54:08.139Z,-0.60
2018-02-27T11:56:41.742Z,-0.30
2018-02-27T11:59:15.532Z,-0.80
2018-02-27T12:01:49.298Z,-1.20
2018-02-27T12:04:23.345Z,-1.10
2018-02-27T12:06:57.261Z,-1.10
2018-02-27T12:09:31.326Z,-0.90
2018-02-27T12:12:05.998Z,-1.20
2018-02-27T12:14:39.761Z,-1.40
2018-02-27T12:17:14.149Z,-1.60
2018-02-27T12:19:48.280Z,-1.60
2018-02-27T12:22:22.083Z,-1.40
2018-02-27T12:24:55.835Z,-0.80
2018-02-27T12:27:29.491Z,-0.80
2018-02-27T12:30:04.215Z,-0.80
2018-02-27T12:32:38.165Z,-0.70
2018-02-27T12:35:12.784Z,-0.40
2018-02-27T12:37:47.463Z,-0.70
2018-02-27T12:40:21.490Z,-0.70
2018-02-27T12:42:55.152Z,-0.70
2018-02-27T12:45:30.551Z,-1.00
2018-02-27T12:48:04.502Z,-1.00
2018-02-27T12:50:39.181Z,-0.80
2018-02-27T12:53:12.886Z,-0.70
2018-02-27T12:55:47.620Z,-0.80
2018-02-27T12:58:21.724Z,-1.00
2018-02-27T13:00:56.382Z,-0.80
2018-02-27T13:03:31.130Z,-0.80
2018-02-27T13:06:05.321Z,-0.80
2018-02-27T13:08:39.034Z,-1.00
2018-02-27T13:11:12.801Z,-1.00
2018-02-27T13:13:47.411Z,-1.30
2018-02-27T13:16:21.612Z,-1.30
2018-02-27T13:18:57.043Z,-1.30
2018-02-27T13:21:31.054Z,-1.30
2018-02-27T13:24:04.712Z,-1.20
2018-02-27T13:26:39.456Z,-1.20
2018-02-27T13:29:13.307Z,-1.20
2018-02-27T13:31:47.754Z,-0.90
2018-02-27T13:34:21.765Z,-0.90
2018-02-27T13:36:55.818Z,-1.10
2018-02-27T13:39:30.365Z,-0.90
2018-02-27T13:42:04.439Z,-0.90
2018-02-27T13:44:39.118Z,-0.90
2018-02-27T13:47:12.882Z,-0.90
2018-02-27T13:49:47.522Z,-0.90
2018-02-27T13:52:21.402Z,-0.50
2018-02-27T13:54:55.089Z,-0.60
2018-02-27T13:57:29.712Z,-1.00
2018-02-27T14:00:03.679Z,-1.00
2018-02-27T14:02:37.425Z,-0.70
2018-02-27T14:05:11.242Z,-0.70
2018-02-27T14:07:45.104Z,-0.60
2018-02-27T14:10:18.854Z,-0.20
2018-02-27T14:12:52.544Z,-0.30
2018-02-27T14:15:26.349Z,-0.30
2018-02-27T14:18:01.068Z,-0.40
2018-02-27T14:20:35.085Z,-0.40
2018-02-27T14:23:08.981Z,-0.60
2018-02-27T14:25:43.094Z,-0.60
2018-02-27T14:28:16.978Z,-0.40
2018-02-27T14:30:51.607Z,-0.30
2018-02-27T14:33:25.965Z,-0.30
2018-02-27T14:35:59.832Z,-0.40
2018-02-27T14:38:33.588Z,-0.50
2018-02-27T14:41:08.286Z,-0.20
2018-02-27T14:43:43.118Z,-0.10
2018-02-27T14:46:16.914Z,-0.10
2018-02-27T14:48:51.810Z,0.10
2018-02-27T14:51:25.754Z,0.20
2018-02-27T14:53:59.766Z,0.30
2018-02-27T14:56:34.273Z,0.00
2018-02-27T14:59:08.366Z,0.00
2018-02-27T15:01:42.005Z,0.30
2018-02-27T15:04:15.895Z,0.30
2018-02-27T15:06:49.710Z,0.20
2018-02-27T15:09:24.135Z,0.30
2018-02-27T15:11:57.804Z,0.50
2018-02-27T15:14:31.689Z,0.50
2018-02-27T15:17:05.549Z,0.10
2018-02-27T15:19:39.202Z,0.60
2018-02-27T15:22:12.904Z,0.70
2018-02-27T15:24:46.578Z,0.90
2018-02-27T15:27:20.317Z,0.50
2018-02-27T15:29:54.482Z,0.40
2018-02-27T15:32:28.959Z,0.00
2018-02-27T15:35:03.036Z,-0.10
2018-02-27T15:37:36.780Z,-0.40
2018-02-27T15:40:11.019Z,-0.60
2018-02-27T15:42:45.706Z,-0.40
2018-02-27T15:45:19.571Z,-0.50
2018-02-27T15:47:54.386Z,-0.10
2018-02-27T15:50:29.213Z,-0.30
2018-02-27T15:53:03.356Z,-0.30
2018-02-27T15:55:37.408Z,-0.30
2018-02-27T15:58:11.048Z,-0.20
2018-02-27T16:00:44.796Z,-0.30
2018-02-27T16:03:18.887Z,-0.20
2018-02-27T16:05:53.381Z,-0.40
2018-02-27T16:08:27.503Z,-0.40
2018-02-27T16:11:01.598Z,-0.60
2018-02-27T16:13:35.733Z,-0.70
2018-02-27T16:16:09.570Z,-0.40
2018-02-27T16:18:44.209Z,-0.50
2018-02-27T16:21:19.281Z,-0.50
2018-02-27T16:23:54.401Z,-0.20
2018-02-27T16:26:28.329Z,-0.20
2018-02-27T16:29:03.240Z,-0.50
2018-02-27T16:31:36.977Z,-0.50
2018-02-27T16:34:10.616Z,-0.40
2018-02-27T16:36:44.532Z,-0.40
2018-02-27T16:39:19.283Z,-0.40
2018-02-27T16:41:53.878Z,-0.70
2018-02-27T16:44:27.746Z,-0.60
2018-02-27T16:47:02.423Z,-0.60
2018-02-27T16:49:36.179Z,-0.60
2018-02-27T16:52:10.806Z,-0.70
2018-02-27T16:54:44.648Z,-0.70
2018-02-27T16:57:21.522Z,-0.70
2018-02-27T16:59:56.105Z,-0.40
2018-02-27T17:02:30.222Z,-0.40
2018-02-27T17:05:04.684Z,-0.60
2018-02-27T17:07:39.660Z,-0.30
2018-02-27T17:10:13.863Z,-0.30
2018-02-27T17:12:48.448Z,-0.30
2018-02-27T17:15:22.432Z,-0.30
2018-02-27T17:17:56.691Z,-0.30
2018-02-27T17:20:32.111Z,-0.10
2018-02-27T17:23:06.830Z,-0.10
2018-02-27T17:25:41.525Z,-0.20
2018-02-27T17:28:16.615Z,-0.20
2018-02-27T17:30:50.917Z,-0.30
2018-02-27T17:33:24.733Z,-0.20
2018-02-27T17:35:58.418Z,-0.20
2018-02-27T17:38:33.001Z,-0.20
2018-02-27T17:41:07.630Z,-0.20
2018-02-27T17:43:41.592Z,-0.20
2018-02-27T17:46:16.318Z,-0.40
2018-02-27T17:48:50.459Z,-0.40
2018-02-27T17:51:24.254Z,-0.30
2018-02-27T17:53:58.439Z,-0.30
2018-02-27T17:56:32.559Z,-0.20
2018-02-27T17:59:07.563Z,-0.20
2018-02-27T18:01:42.154Z,-0.30
2018-02-27T18:04:15.817Z,-0.30
2018-02-27T18:06:50.017Z,-0.30
2018-02-27T18:09:23.920Z,-0.30
2018-02-27T18:11:58.619Z,-0.20
2018-02-27T18:14:33.245Z,-0.10
2018-02-27T18:17:07.282Z,-0.20
2018-02-27T18:19:41.340Z,-0.30
2018-02-27T18:22:15.113Z,-0.50
2018-02-27T18:24:49.610Z,-0.40
2018-02-27T18:27:23.708Z,-0.40
2018-02-27T18:29:58.402Z,-0.30
2018-02-27T18:32:32.120Z,-0.30
2018-02-27T18:35:06.353Z,-0.20
2018-02-27T18:37:40.930Z,-0.20
2018-02-27T18:40:14.797Z,-0.30
2018-02-27T18:42:48.645Z,-0.40
2018-02-27T18:45:22.494Z,-0.40
2018-02-27T18:47:57.362Z,-0.30
2018-02-27T18:50:31.295Z,-0.30
2018-02-27T18:53:05.372Z,-0.30
2018-02-27T18:55:39.149Z,-0.40
2018-02-27T18:58:12.861Z,-0.30
2018-02-27T19:00:46.778Z,-0.20
2018-02-27T19:03:20.592Z,-0.20
2018-02-27T19:05:55.533Z,-0.30
2018-02-27T19:08:30.939Z,-0.40
2018-02-27T19:11:05.379Z,-0.40
2018-02-27T19:13:39.113Z,-0.30
2018-02-27T19:16:13.109Z,-0.30
2018-02-27T19:18:47.621Z,-0.50
2018-02-27T19:21:21.606Z,-0.50
2018-02-27T19:23:55.460Z,-0.50
2018-02-27T19:26:29.354Z,-0.50
2018-02-27T19:29:04.034Z,-0.50
2018-02-27T19:31:39.562Z,-0.60
2018-02-27T19:34:13.621Z,-0.60
2018-02-27T19:36:47.411Z,-0.60
2018-02-27T19:39:21.426Z,-0.60
2018-02-27T19:41:55.365Z,-0.60
2018-02-27T19:44:29.062Z,-0.60
2018-02-27T19:47:02.859Z,-0.60
2018-02-27T19:49:36.595Z,-0.70
2018-02-27T19:52:10.454Z,-0.70
2018-02-27T19:54:44.470Z,-0.70
2018-02-27T19:57:18.275Z,-0.70
2018-02-27T19:59:52.820Z,-0.80
2018-02-27T20:02:27.533Z,-0.70
2018-02-27T20:05:01.664Z,-0.70
2018-02-27T20:07:35.522Z,-0.80
2018-02-27T20:10:09.331Z,-0.90
2018-02-27T20:12:43.222Z,-1.00
2018-02-27T20:15:17.448Z,-0.90
2018-02-27T20:17:57.114Z,-1.10
2018-02-27T20:20:31.454Z,-1.20
2018-02-27T20:23:11.338Z,-1.00
2018-02-27T20:25:45.787Z,-1.10
2018-02-27T20:28:25.232Z,-1.10
2018-02-27T20:30:59.712Z,-1.10
2018-02-27T20:33:35.115Z,-1.30
2018-02-27T20:36:09.092Z,-1.30
2018-02-27T20:38:48.773Z,-1.30
2018-02-27T20:41:22.579Z,-1.50
2018-02-27T20:43:56.625Z,-1.30
2018-02-27T20:46:31.206Z,-1.30
2018-02-27T20:49:05.205Z,-1.30
2018-02-27T20:51:39.711Z,-1.50
2018-02-27T20:54:13.733Z,-1.50
2018-02-27T20:56:47.664Z,-1.60
2018-02-27T20:59:21.458Z,-1.70
2018-02-27T21:01:56.034Z,-1.60
2018-02-27T21:04:30.062Z,-1.60
2018-02-27T21:07:04.145Z,-1.50
2018-02-27T21:09:38.728Z,-1.70
2018-02-27T21:12:12.777Z,-1.70
2018-02-27T21:14:46.578Z,-1.70
2018-02-27T21:17:20.316Z,-1.90
2018-02-27T21:19:54.002Z,-2.00
2018-02-27T21:22:27.678Z,-2.00
2018-02-27T21:25:02.291Z,-1.70
2018-02-27T21:27:36.143Z,-1.70
2018-02-27T21:30:10.802Z,-1.90
2018-02-27T21:32:45.257Z,-1.80
2018-02-27T21:35:19.601Z,-1.80
2018-02-27T21:37:53.918Z,-1.90
2018-02-27T21:40:27.900Z,-1.80
2018-02-27T21:43:01.810Z,-1.70
2018-02-27T21:45:36.065Z,-1.80
2018-02-27T21:48:10.506Z,-1.60
2018-02-27T21:50:44.417Z,-1.60
2018-02-27T21:53:19.050Z,-1.60
2018-02-27T21:55:53.139Z,-1.60
2018-02-27T21:58:27.138Z,-1.60
2018-02-27T22:01:01.146Z,-1.70
2018-02-27T22:03:34.848Z,-1.80
2018-02-27T22:06:09.992Z,-1.80
2018-02-27T22:08:43.840Z,-1.80
2018-02-27T22:11:17.730Z,-1.90
2018-02-27T22:13:51.589Z,-1.90
2018-02-27T22:16:25.408Z,-1.90
2018-02-27T22:18:59.172Z,-2.00
2018-02-27T22:21:32.966Z,-2.20
2018-02-27T22:24:07.065Z,-2.30
2018-02-27T22:26:40.871Z,-2.30
2018-02-27T22:29:16.371Z,-2.30
2018-02-27T22:31:50.262Z,-2.30
2018-02-27T22:34:24.728Z,-2.30
2018-02-27T22:36:58.827Z,-2.30
2018-02-27T22:39:32.566Z,-2.30
2018-02-27T22:42:06.323Z,-2.40
2018-02-27T22:44:39.969Z,-2.40
2018-02-27T22:47:14.649Z,-2.50
2018-02-27T22:49:48.491Z,-2.40
2018-02-27T22:52:23.054Z,-2.40
2018-02-27T22:54:58.582Z,-2.50
2018-02-27T22:57:33.917Z,-2.50
2018-02-27T23:00:08.227Z,-2.50
2018-02-27T23:02:43.399Z,-2.40
2018-02-27T23:05:17.225Z,-2.40
2018-02-27T23:07:51.116Z,-2.50
2018-02-27T23:10:24.815Z,-2.50
2018-02-27T23:12:58.816Z,-2.50
2018-02-27T23:15:33.568Z,-2.70
2018-02-27T23:18:07.594Z,-2.70
2018-02-27T23:20:42.417Z,-2.70
2018-02-27T23:23:16.502Z,-2.70
2018-02-27T23:26:03.851Z,-2.60
2018-02-27T23:28:41.666Z,-2.70
2018-02-27T23:31:16.979Z,-2.70
2018-02-27T23:33:58.071Z,-2.70
2018-02-27T23:36:31.682Z,-2.70
2018-02-27T23:39:05.478Z,-2.80
2018-02-27T23:41:39.147Z,-2.90
2018-02-27T23:44:13.174Z,-3.10
2018-02-27T23:46:47.738Z,-3.30
2018-02-27T23:49:21.595Z,-3.30
2018-02-27T23:51:55.283Z,-3.40
2018-02-27T23:54:29.021Z,-3.40
2018-02-27T23:57:02.863Z,-3.40
2018-02-27T23:59:36.924Z,-3.40
